sensor_id;sensor_type;location;lat;lon;timestamp;temperature;humidity
17988;DHT22;9119;50.932;5.342;2022-10-30T00:01:26;18.30;99.90
17988;DHT22;9119;50.932;5.342;2022-10-30T00:03:51;18.40;99.90
17988;DHT22;9119;50.932;5.342;2022-10-30T00:06:17;18.20;99.90
17988;DHT22;9119;50.932;5.342;2022-10-30T00:08:43;18.30;99.90
17988;DHT22;9119;50.932;5.342;2022-10-30T00:11:11;18.40;99.90
17988;DHT22;9119;50.932;5.342;2022-10-30T00:13:38;18.40;99.90
17988;DHT22;9119;50.932;5.342;2022-10-30T00:16:05;18.40;99.90
17988;DHT22;9119;50.932;5.342;2022-10-30T00:18:34;18.40;99.90
17988;DHT22;9119;50.932;5.342;2022-10-30T00:21:11;18.30;99.90
17988;DHT22;9119;50.932;5.342;2022-10-30T00:23:38;18.20;99.90
17988;DHT22;9119;50.932;5.342;2022-10-30T00:26:05;18.10;99.90
17988;DHT22;9119;50.932;5.342;2022-10-30T00:28:31;18.10;99.90
17988;DHT22;9119;50.932;5.342;2022-10-30T00:31:01;18.10;99.90
17988;DHT22;9119;50.932;5.342;2022-10-30T00:33:27;18.10;99.90
17988;DHT22;9119;50.932;5.342;2022-10-30T00:35:53;18.10;99.90
17988;DHT22;9119;50.932;5.342;2022-10-30T00:38:18;18.00;99.90
17988;DHT22;9119;50.932;5.342;2022-10-30T00:40:44;18.00;99.90
17988;DHT22;9119;50.932;5.342;2022-10-30T00:43:31;18.00;99.90
17988;DHT22;9119;50.932;5.342;2022-10-30T00:46:01;17.80;99.90
17988;DHT22;9119;50.932;5.342;2022-10-30T00:48:27;17.80;99.90
17988;DHT22;9119;50.932;5.342;2022-10-30T00:50:53;17.90;99.90
17988;DHT22;9119;50.932;5.342;2022-10-30T00:53:20;17.90;99.90
17988;DHT22;9119;50.932;5.342;2022-10-30T00:55:49;17.70;99.90
17988;DHT22;9119;50.932;5.342;2022-10-30T00:58:19;17.80;99.90
17988;DHT22;9119;50.932;5.342;2022-10-30T01:00:51;17.60;99.90
17988;DHT22;9119;50.932;5.342;2022-10-30T01:03:18;17.60;99.90
17988;DHT22;9119;50.932;5.342;2022-10-30T01:05:47;17.70;99.90
17988;DHT22;9119;50.932;5.342;2022-10-30T01:08:15;17.60;99.90
17988;DHT22;9119;50.932;5.342;2022-10-30T01:10:41;17.70;99.90
17988;DHT22;9119;50.932;5.342;2022-10-30T01:13:07;17.70;99.90
17988;DHT22;9119;50.932;5.342;2022-10-30T01:15:36;17.70;99.90
17988;DHT22;9119;50.932;5.342;2022-10-30T01:32:10;17.80;99.90
17988;DHT22;9119;50.932;5.342;2022-10-30T01:34:42;17.90;99.90
17988;DHT22;9119;50.932;5.342;2022-10-30T01:37:33;17.80;99.90
17988;DHT22;9119;50.932;5.342;2022-10-30T01:40:10;17.70;99.90
17988;DHT22;9119;50.932;5.342;2022-10-30T01:42:46;17.60;99.90
17988;DHT22;9119;50.932;5.342;2022-10-30T01:53:42;17.40;99.90
17988;DHT22;9119;50.932;5.342;2022-10-30T01:59:20;17.20;99.90
17988;DHT22;9119;50.932;5.342;2022-10-30T02:01:48;17.20;99.90
17988;DHT22;9119;50.932;5.342;2022-10-30T02:04:13;17.20;99.90
17988;DHT22;9119;50.932;5.342;2022-10-30T02:06:39;17.10;99.90
17988;DHT22;9119;50.932;5.342;2022-10-30T02:09:05;17.00;99.90
17988;DHT22;9119;50.932;5.342;2022-10-30T02:11:32;17.00;99.90
17988;DHT22;9119;50.932;5.342;2022-10-30T02:14:03;17.00;99.90
17988;DHT22;9119;50.932;5.342;2022-10-30T02:16:30;17.00;99.90
17988;DHT22;9119;50.932;5.342;2022-10-30T02:18:57;16.80;99.90
17988;DHT22;9119;50.932;5.342;2022-10-30T02:21:23;16.90;99.90
17988;DHT22;9119;50.932;5.342;2022-10-30T02:23:49;16.90;99.90
17988;DHT22;9119;50.932;5.342;2022-10-30T02:26:14;16.80;99.90
17988;DHT22;9119;50.932;5.342;2022-10-30T02:28:40;17.00;99.90
17988;DHT22;9119;50.932;5.342;2022-10-30T02:31:05;16.80;99.90
17988;DHT22;9119;50.932;5.342;2022-10-30T02:33:31;16.80;99.90
17988;DHT22;9119;50.932;5.342;2022-10-30T02:35:57;16.80;99.90
17988;DHT22;9119;50.932;5.342;2022-10-30T02:38:23;16.70;99.90
17988;DHT22;9119;50.932;5.342;2022-10-30T02:40:48;16.70;99.90
17988;DHT22;9119;50.932;5.342;2022-10-30T02:43:14;16.80;99.90
17988;DHT22;9119;50.932;5.342;2022-10-30T02:45:40;16.80;99.90
17988;DHT22;9119;50.932;5.342;2022-10-30T02:48:05;16.80;99.90
17988;DHT22;9119;50.932;5.342;2022-10-30T02:50:31;16.70;99.90
17988;DHT22;9119;50.932;5.342;2022-10-30T02:53:00;16.70;99.90
17988;DHT22;9119;50.932;5.342;2022-10-30T02:55:25;16.70;99.90
17988;DHT22;9119;50.932;5.342;2022-10-30T02:57:51;16.70;99.90
17988;DHT22;9119;50.932;5.342;2022-10-30T03:00:16;16.70;99.90
17988;DHT22;9119;50.932;5.342;2022-10-30T03:02:42;16.70;99.90
17988;DHT22;9119;50.932;5.342;2022-10-30T03:05:08;16.60;99.90
17988;DHT22;9119;50.932;5.342;2022-10-30T03:07:33;16.60;99.90
17988;DHT22;9119;50.932;5.342;2022-10-30T03:09:59;16.60;99.90
17988;DHT22;9119;50.932;5.342;2022-10-30T03:12:25;16.60;99.90
17988;DHT22;9119;50.932;5.342;2022-10-30T03:14:50;16.60;99.90
17988;DHT22;9119;50.932;5.342;2022-10-30T03:17:16;16.60;99.90
17988;DHT22;9119;50.932;5.342;2022-10-30T03:19:41;16.60;99.90
17988;DHT22;9119;50.932;5.342;2022-10-30T03:22:07;16.70;99.90
17988;DHT22;9119;50.932;5.342;2022-10-30T03:24:33;16.70;99.90
17988;DHT22;9119;50.932;5.342;2022-10-30T03:26:58;16.80;99.90
17988;DHT22;9119;50.932;5.342;2022-10-30T03:29:24;16.70;99.90
17988;DHT22;9119;50.932;5.342;2022-10-30T03:31:49;16.80;99.90
17988;DHT22;9119;50.932;5.342;2022-10-30T03:34:15;16.80;99.90
17988;DHT22;9119;50.932;5.342;2022-10-30T03:36:41;16.70;99.90
17988;DHT22;9119;50.932;5.342;2022-10-30T03:39:06;16.70;99.90
17988;DHT22;9119;50.932;5.342;2022-10-30T03:41:32;16.60;99.90
17988;DHT22;9119;50.932;5.342;2022-10-30T03:43:58;16.50;99.90
17988;DHT22;9119;50.932;5.342;2022-10-30T03:46:23;16.50;99.90
17988;DHT22;9119;50.932;5.342;2022-10-30T03:48:49;16.50;99.90
17988;DHT22;9119;50.932;5.342;2022-10-30T03:51:15;16.50;99.90
17988;DHT22;9119;50.932;5.342;2022-10-30T03:53:41;16.50;99.90
17988;DHT22;9119;50.932;5.342;2022-10-30T03:56:08;16.40;99.90
17988;DHT22;9119;50.932;5.342;2022-10-30T03:58:34;16.40;99.90
17988;DHT22;9119;50.932;5.342;2022-10-30T04:01:03;16.50;99.90
17988;DHT22;9119;50.932;5.342;2022-10-30T04:03:29;16.30;99.90
17988;DHT22;9119;50.932;5.342;2022-10-30T04:05:55;16.30;99.90
17988;DHT22;9119;50.932;5.342;2022-10-30T04:08:20;16.30;99.90
17988;DHT22;9119;50.932;5.342;2022-10-30T04:10:46;16.30;99.90
17988;DHT22;9119;50.932;5.342;2022-10-30T04:13:14;16.30;99.90
17988;DHT22;9119;50.932;5.342;2022-10-30T04:15:41;16.30;99.90
17988;DHT22;9119;50.932;5.342;2022-10-30T04:18:12;16.20;99.90
17988;DHT22;9119;50.932;5.342;2022-10-30T04:20:39;16.20;99.90
17988;DHT22;9119;50.932;5.342;2022-10-30T04:23:06;16.10;99.90
17988;DHT22;9119;50.932;5.342;2022-10-30T04:25:33;16.10;99.90
17988;DHT22;9119;50.932;5.342;2022-10-30T04:27:59;16.20;99.90
17988;DHT22;9119;50.932;5.342;2022-10-30T04:30:25;16.00;99.90
17988;DHT22;9119;50.932;5.342;2022-10-30T04:32:55;15.80;99.90
17988;DHT22;9119;50.932;5.342;2022-10-30T04:35:23;15.80;99.90
17988;DHT22;9119;50.932;5.342;2022-10-30T04:38:04;15.80;99.90
17988;DHT22;9119;50.932;5.342;2022-10-30T04:40:32;15.80;99.90
17988;DHT22;9119;50.932;5.342;2022-10-30T04:42:58;15.80;99.90
17988;DHT22;9119;50.932;5.342;2022-10-30T04:45:24;15.90;99.90
17988;DHT22;9119;50.932;5.342;2022-10-30T04:47:51;15.60;99.90
17988;DHT22;9119;50.932;5.342;2022-10-30T04:50:17;15.60;99.90
17988;DHT22;9119;50.932;5.342;2022-10-30T04:52:42;15.60;99.90
17988;DHT22;9119;50.932;5.342;2022-10-30T04:55:09;15.60;99.90
17988;DHT22;9119;50.932;5.342;2022-10-30T04:57:36;15.80;99.90
17988;DHT22;9119;50.932;5.342;2022-10-30T05:00:06;15.60;99.90
17988;DHT22;9119;50.932;5.342;2022-10-30T05:02:34;15.60;99.90
17988;DHT22;9119;50.932;5.342;2022-10-30T05:05:00;15.60;99.90
17988;DHT22;9119;50.932;5.342;2022-10-30T05:07:25;15.60;99.90
17988;DHT22;9119;50.932;5.342;2022-10-30T05:09:51;15.40;99.90
17988;DHT22;9119;50.932;5.342;2022-10-30T05:12:16;15.40;99.90
17988;DHT22;9119;50.932;5.342;2022-10-30T05:14:43;15.60;99.90
17988;DHT22;9119;50.932;5.342;2022-10-30T05:17:09;15.40;99.90
17988;DHT22;9119;50.932;5.342;2022-10-30T05:19:35;15.30;99.90
17988;DHT22;9119;50.932;5.342;2022-10-30T05:22:00;15.20;99.90
17988;DHT22;9119;50.932;5.342;2022-10-30T05:24:26;15.20;99.90
17988;DHT22;9119;50.932;5.342;2022-10-30T05:26:51;15.30;99.90
17988;DHT22;9119;50.932;5.342;2022-10-30T05:29:17;15.20;99.90
17988;DHT22;9119;50.932;5.342;2022-10-30T05:31:43;15.10;99.90
17988;DHT22;9119;50.932;5.342;2022-10-30T05:34:08;15.20;99.90
17988;DHT22;9119;50.932;5.342;2022-10-30T05:36:34;15.00;99.90
17988;DHT22;9119;50.932;5.342;2022-10-30T05:38:59;15.00;99.90
17988;DHT22;9119;50.932;5.342;2022-10-30T05:41:27;15.20;99.90
17988;DHT22;9119;50.932;5.342;2022-10-30T05:43:53;15.00;99.90
17988;DHT22;9119;50.932;5.342;2022-10-30T05:46:19;15.00;99.90
17988;DHT22;9119;50.932;5.342;2022-10-30T05:48:44;15.00;99.90
17988;DHT22;9119;50.932;5.342;2022-10-30T05:51:10;15.00;99.90
17988;DHT22;9119;50.932;5.342;2022-10-30T05:53:35;15.10;99.90
17988;DHT22;9119;50.932;5.342;2022-10-30T05:56:01;14.90;99.90
17988;DHT22;9119;50.932;5.342;2022-10-30T05:58:26;14.90;99.90
17988;DHT22;9119;50.932;5.342;2022-10-30T06:00:52;14.90;99.90
17988;DHT22;9119;50.932;5.342;2022-10-30T06:03:18;14.80;99.90
17988;DHT22;9119;50.932;5.342;2022-10-30T06:05:45;14.80;99.90
17988;DHT22;9119;50.932;5.342;2022-10-30T06:08:11;14.70;99.90
17988;DHT22;9119;50.932;5.342;2022-10-30T06:10:37;14.70;99.90
17988;DHT22;9119;50.932;5.342;2022-10-30T06:13:05;14.60;99.90
17988;DHT22;9119;50.932;5.342;2022-10-30T06:15:31;14.60;99.90
17988;DHT22;9119;50.932;5.342;2022-10-30T06:17:57;14.50;99.90
17988;DHT22;9119;50.932;5.342;2022-10-30T06:20:26;14.40;99.90
17988;DHT22;9119;50.932;5.342;2022-10-30T06:23:09;14.50;99.90
17988;DHT22;9119;50.932;5.342;2022-10-30T06:25:35;14.30;99.90
17988;DHT22;9119;50.932;5.342;2022-10-30T06:28:01;14.30;99.90
17988;DHT22;9119;50.932;5.342;2022-10-30T06:30:27;14.40;99.90
17988;DHT22;9119;50.932;5.342;2022-10-30T06:33:00;14.50;99.90
17988;DHT22;9119;50.932;5.342;2022-10-30T06:35:26;14.60;99.90
17988;DHT22;9119;50.932;5.342;2022-10-30T06:37:53;14.60;99.90
17988;DHT22;9119;50.932;5.342;2022-10-30T06:40:19;14.60;99.90
17988;DHT22;9119;50.932;5.342;2022-10-30T06:42:47;14.50;99.90
17988;DHT22;9119;50.932;5.342;2022-10-30T06:45:14;14.40;99.90
17988;DHT22;9119;50.932;5.342;2022-10-30T06:47:39;14.30;99.90
17988;DHT22;9119;50.932;5.342;2022-10-30T06:50:07;14.30;99.90
17988;DHT22;9119;50.932;5.342;2022-10-30T06:52:34;14.30;99.90
17988;DHT22;9119;50.932;5.342;2022-10-30T06:55:00;14.30;99.90
17988;DHT22;9119;50.932;5.342;2022-10-30T06:57:25;14.50;99.90
17988;DHT22;9119;50.932;5.342;2022-10-30T06:59:51;14.50;99.90
17988;DHT22;9119;50.932;5.342;2022-10-30T07:02:17;14.50;99.90
17988;DHT22;9119;50.932;5.342;2022-10-30T07:04:42;14.50;99.90
17988;DHT22;9119;50.932;5.342;2022-10-30T07:07:10;14.50;99.90
17988;DHT22;9119;50.932;5.342;2022-10-30T07:09:35;14.70;99.90
17988;DHT22;9119;50.932;5.342;2022-10-30T07:12:01;14.60;99.90
17988;DHT22;9119;50.932;5.342;2022-10-30T07:14:27;14.60;99.90
17988;DHT22;9119;50.932;5.342;2022-10-30T07:16:54;14.60;99.90
17988;DHT22;9119;50.932;5.342;2022-10-30T07:19:21;14.50;99.90
17988;DHT22;9119;50.932;5.342;2022-10-30T07:21:47;14.50;99.90
17988;DHT22;9119;50.932;5.342;2022-10-30T07:24:13;14.40;99.90
17988;DHT22;9119;50.932;5.342;2022-10-30T07:26:39;14.60;99.90
17988;DHT22;9119;50.932;5.342;2022-10-30T07:29:05;14.50;99.90
17988;DHT22;9119;50.932;5.342;2022-10-30T07:31:30;14.50;99.90
17988;DHT22;9119;50.932;5.342;2022-10-30T07:33:56;14.50;99.90
17988;DHT22;9119;50.932;5.342;2022-10-30T07:36:22;14.50;99.90
17988;DHT22;9119;50.932;5.342;2022-10-30T07:38:49;14.50;99.90
17988;DHT22;9119;50.932;5.342;2022-10-30T07:41:16;14.50;99.90
17988;DHT22;9119;50.932;5.342;2022-10-30T07:43:42;14.60;99.90
17988;DHT22;9119;50.932;5.342;2022-10-30T07:46:08;14.60;99.90
17988;DHT22;9119;50.932;5.342;2022-10-30T07:48:33;14.70;99.90
17988;DHT22;9119;50.932;5.342;2022-10-30T07:50:59;14.80;99.90
17988;DHT22;9119;50.932;5.342;2022-10-30T07:53:25;14.80;99.90
17988;DHT22;9119;50.932;5.342;2022-10-30T07:55:50;14.80;99.90
17988;DHT22;9119;50.932;5.342;2022-10-30T07:58:16;15.00;99.90
17988;DHT22;9119;50.932;5.342;2022-10-30T08:00:41;14.90;99.90
17988;DHT22;9119;50.932;5.342;2022-10-30T08:03:08;15.00;99.90
17988;DHT22;9119;50.932;5.342;2022-10-30T08:05:35;15.20;99.90
17988;DHT22;9119;50.932;5.342;2022-10-30T08:08:00;15.40;99.90
17988;DHT22;9119;50.932;5.342;2022-10-30T08:10:26;15.60;99.90
17988;DHT22;9119;50.932;5.342;2022-10-30T08:12:52;15.50;99.90
17988;DHT22;9119;50.932;5.342;2022-10-30T08:15:17;15.60;99.90
17988;DHT22;9119;50.932;5.342;2022-10-30T08:17:45;15.70;99.90
17988;DHT22;9119;50.932;5.342;2022-10-30T08:20:12;16.00;99.90
17988;DHT22;9119;50.932;5.342;2022-10-30T08:22:54;16.20;99.90
17988;DHT22;9119;50.932;5.342;2022-10-30T08:25:24;16.30;99.90
17988;DHT22;9119;50.932;5.342;2022-10-30T08:27:58;16.60;99.90
17988;DHT22;9119;50.932;5.342;2022-10-30T08:30:26;17.00;99.90
17988;DHT22;9119;50.932;5.342;2022-10-30T08:32:59;17.50;99.90
17988;DHT22;9119;50.932;5.342;2022-10-30T08:35:25;17.90;99.90
17988;DHT22;9119;50.932;5.342;2022-10-30T08:37:55;18.10;99.90
17988;DHT22;9119;50.932;5.342;2022-10-30T08:40:21;18.30;99.90
17988;DHT22;9119;50.932;5.342;2022-10-30T08:42:54;18.70;99.90
17988;DHT22;9119;50.932;5.342;2022-10-30T08:45:20;19.00;99.90
17988;DHT22;9119;50.932;5.342;2022-10-30T08:47:47;18.80;99.90
17988;DHT22;9119;50.932;5.342;2022-10-30T08:50:13;18.60;99.90
17988;DHT22;9119;50.932;5.342;2022-10-30T08:52:39;18.20;99.90
17988;DHT22;9119;50.932;5.342;2022-10-30T08:55:05;17.90;99.90
17988;DHT22;9119;50.932;5.342;2022-10-30T08:57:35;17.80;99.90
17988;DHT22;9119;50.932;5.342;2022-10-30T09:00:02;17.60;99.90
17988;DHT22;9119;50.932;5.342;2022-10-30T09:02:28;17.60;99.90
17988;DHT22;9119;50.932;5.342;2022-10-30T09:04:53;17.60;99.90
17988;DHT22;9119;50.932;5.342;2022-10-30T09:07:19;17.60;99.90
17988;DHT22;9119;50.932;5.342;2022-10-30T09:09:45;17.70;99.90
17988;DHT22;9119;50.932;5.342;2022-10-30T09:12:10;17.70;99.90
17988;DHT22;9119;50.932;5.342;2022-10-30T09:14:36;17.80;99.90
17988;DHT22;9119;50.932;5.342;2022-10-30T09:17:02;17.90;99.90
17988;DHT22;9119;50.932;5.342;2022-10-30T09:19:28;18.00;99.90
17988;DHT22;9119;50.932;5.342;2022-10-30T09:21:53;18.00;99.90
17988;DHT22;9119;50.932;5.342;2022-10-30T09:24:19;18.10;99.90
17988;DHT22;9119;50.932;5.342;2022-10-30T09:26:44;18.20;99.90
17988;DHT22;9119;50.932;5.342;2022-10-30T09:29:10;18.30;99.90
17988;DHT22;9119;50.932;5.342;2022-10-30T09:31:36;18.40;99.90
17988;DHT22;9119;50.932;5.342;2022-10-30T09:34:01;18.40;99.90
17988;DHT22;9119;50.932;5.342;2022-10-30T09:36:27;18.40;99.90
17988;DHT22;9119;50.932;5.342;2022-10-30T09:38:52;18.40;99.90
17988;DHT22;9119;50.932;5.342;2022-10-30T09:50:03;18.70;99.90
17988;DHT22;9119;50.932;5.342;2022-10-30T09:52:51;18.80;99.90
17988;DHT22;9119;50.932;5.342;2022-10-30T09:55:39;18.90;99.90
17988;DHT22;9119;50.932;5.342;2022-10-30T09:58:26;19.10;99.90
17988;DHT22;9119;50.932;5.342;2022-10-30T10:01:20;19.10;99.90
17988;DHT22;9119;50.932;5.342;2022-10-30T10:04:03;19.10;99.90
17988;DHT22;9119;50.932;5.342;2022-10-30T10:06:34;19.10;99.90
17988;DHT22;9119;50.932;5.342;2022-10-30T10:09:05;19.20;99.90
17988;DHT22;9119;50.932;5.342;2022-10-30T10:11:36;19.20;99.90
17988;DHT22;9119;50.932;5.342;2022-10-30T10:14:25;19.30;99.90
17988;DHT22;9119;50.932;5.342;2022-10-30T10:16:54;19.40;99.90
17988;DHT22;9119;50.932;5.342;2022-10-30T10:19:31;19.40;99.90
17988;DHT22;9119;50.932;5.342;2022-10-30T10:22:01;19.50;99.90
17988;DHT22;9119;50.932;5.342;2022-10-30T10:24:31;19.50;99.90
17988;DHT22;9119;50.932;5.342;2022-10-30T10:35:35;19.80;99.90
17988;DHT22;9119;50.932;5.342;2022-10-30T10:41:13;19.90;99.90
17988;DHT22;9119;50.932;5.342;2022-10-30T10:44:13;19.90;99.90
17988;DHT22;9119;50.932;5.342;2022-10-30T10:49:26;19.90;99.90
17988;DHT22;9119;50.932;5.342;2022-10-30T10:52:09;19.90;99.90
17988;DHT22;9119;50.932;5.342;2022-10-30T10:57:05;19.90;99.90
17988;DHT22;9119;50.932;5.342;2022-10-30T10:59:53;19.90;99.90
17988;DHT22;9119;50.932;5.342;2022-10-30T11:08:16;20.00;99.90
17988;DHT22;9119;50.932;5.342;2022-10-30T11:10:50;20.00;99.90
17988;DHT22;9119;50.932;5.342;2022-10-30T11:13:18;20.00;99.90
17988;DHT22;9119;50.932;5.342;2022-10-30T11:18:24;20.00;99.90
17988;DHT22;9119;50.932;5.342;2022-10-30T11:21:08;20.00;99.90
17988;DHT22;9119;50.932;5.342;2022-10-30T11:23:39;20.10;99.90
17988;DHT22;9119;50.932;5.342;2022-10-30T11:29:12;20.20;99.90
17988;DHT22;9119;50.932;5.342;2022-10-30T11:32:16;20.20;99.90
17988;DHT22;9119;50.932;5.342;2022-10-30T11:37:35;20.30;99.90
17988;DHT22;9119;50.932;5.342;2022-10-30T11:40:22;20.30;99.90
17988;DHT22;9119;50.932;5.342;2022-10-30T11:42:56;20.40;99.90
17988;DHT22;9119;50.932;5.342;2022-10-30T11:45:27;20.50;99.90
17988;DHT22;9119;50.932;5.342;2022-10-30T11:47:57;20.60;99.90
17988;DHT22;9119;50.932;5.342;2022-10-30T11:50:26;20.60;99.90
17988;DHT22;9119;50.932;5.342;2022-10-30T11:52:56;20.60;99.90
17988;DHT22;9119;50.932;5.342;2022-10-30T11:55:38;20.70;99.90
17988;DHT22;9119;50.932;5.342;2022-10-30T11:58:06;20.80;99.90
17988;DHT22;9119;50.932;5.342;2022-10-30T12:00:36;20.90;99.90
17988;DHT22;9119;50.932;5.342;2022-10-30T12:03:29;20.90;99.90
17988;DHT22;9119;50.932;5.342;2022-10-30T12:06:16;21.10;99.90
17988;DHT22;9119;50.932;5.342;2022-10-30T12:11:30;21.30;99.90
17988;DHT22;9119;50.932;5.342;2022-10-30T12:13:57;21.30;99.90
17988;DHT22;9119;50.932;5.342;2022-10-30T12:16:23;21.30;99.90
17988;DHT22;9119;50.932;5.342;2022-10-30T12:19:10;21.30;99.90
17988;DHT22;9119;50.932;5.342;2022-10-30T12:21:46;21.40;99.90
17988;DHT22;9119;50.932;5.342;2022-10-30T12:24:18;21.50;99.90
17988;DHT22;9119;50.932;5.342;2022-10-30T12:26:46;21.50;99.90
17988;DHT22;9119;50.932;5.342;2022-10-30T12:29:15;21.60;99.90
17988;DHT22;9119;50.932;5.342;2022-10-30T12:37:10;21.60;99.90
17988;DHT22;9119;50.932;5.342;2022-10-30T12:40:13;21.50;99.90
17988;DHT22;9119;50.932;5.342;2022-10-30T12:42:47;21.50;99.90
17988;DHT22;9119;50.932;5.342;2022-10-30T12:45:19;21.60;99.90
17988;DHT22;9119;50.932;5.342;2022-10-30T12:47:51;21.60;99.90
17988;DHT22;9119;50.932;5.342;2022-10-30T12:50:26;21.60;99.90
17988;DHT22;9119;50.932;5.342;2022-10-30T12:53:05;21.60;99.90
17988;DHT22;9119;50.932;5.342;2022-10-30T12:55:38;21.60;99.90
17988;DHT22;9119;50.932;5.342;2022-10-30T12:58:40;21.60;99.90
17988;DHT22;9119;50.932;5.342;2022-10-30T13:01:17;21.60;99.90
17988;DHT22;9119;50.932;5.342;2022-10-30T13:06:46;21.60;99.90
17988;DHT22;9119;50.932;5.342;2022-10-30T13:09:24;21.70;99.90
17988;DHT22;9119;50.932;5.342;2022-10-30T13:12:02;21.70;99.90
17988;DHT22;9119;50.932;5.342;2022-10-30T13:14:50;21.70;99.90
17988;DHT22;9119;50.932;5.342;2022-10-30T13:17:17;21.70;99.90
17988;DHT22;9119;50.932;5.342;2022-10-30T13:19:46;21.70;99.90
17988;DHT22;9119;50.932;5.342;2022-10-30T13:22:22;21.70;99.90
17988;DHT22;9119;50.932;5.342;2022-10-30T13:25:35;21.70;99.90
17988;DHT22;9119;50.932;5.342;2022-10-30T13:30:13;21.60;99.90
17988;DHT22;9119;50.932;5.342;2022-10-30T13:43:28;21.50;99.90
17988;DHT22;9119;50.932;5.342;2022-10-30T13:46:01;21.50;99.90
17988;DHT22;9119;50.932;5.342;2022-10-30T13:48:36;21.50;99.90
17988;DHT22;9119;50.932;5.342;2022-10-30T13:53:52;21.40;99.90
17988;DHT22;9119;50.932;5.342;2022-10-30T13:56:23;21.40;99.90
17988;DHT22;9119;50.932;5.342;2022-10-30T13:58:52;21.30;99.90
17988;DHT22;9119;50.932;5.342;2022-10-30T14:01:31;21.30;99.90
17988;DHT22;9119;50.932;5.342;2022-10-30T14:11:53;21.20;99.90
17988;DHT22;9119;50.932;5.342;2022-10-30T14:22:31;20.90;99.90
17988;DHT22;9119;50.932;5.342;2022-10-30T14:24:57;20.80;99.90
17988;DHT22;9119;50.932;5.342;2022-10-30T14:27:31;20.90;99.90
17988;DHT22;9119;50.932;5.342;2022-10-30T14:29:57;20.80;99.90
17988;DHT22;9119;50.932;5.342;2022-10-30T14:43:14;20.80;99.90
17988;DHT22;9119;50.932;5.342;2022-10-30T14:46:18;20.80;99.90
17988;DHT22;9119;50.932;5.342;2022-10-30T14:51:43;20.80;99.90
17988;DHT22;9119;50.932;5.342;2022-10-30T14:56:49;20.80;99.90
17988;DHT22;9119;50.932;5.342;2022-10-30T15:07:50;20.70;99.90
17988;DHT22;9119;50.932;5.342;2022-10-30T15:10:31;20.60;99.90
17988;DHT22;9119;50.932;5.342;2022-10-30T15:15:42;20.50;99.90
17988;DHT22;9119;50.932;5.342;2022-10-30T15:18:15;20.50;99.90
17988;DHT22;9119;50.932;5.342;2022-10-30T15:20:43;20.40;99.90
17988;DHT22;9119;50.932;5.342;2022-10-30T15:23:35;20.50;99.90
17988;DHT22;9119;50.932;5.342;2022-10-30T15:26:05;20.40;99.90
17988;DHT22;9119;50.932;5.342;2022-10-30T15:28:33;20.30;99.90
17988;DHT22;9119;50.932;5.342;2022-10-30T15:31:19;20.30;99.90
17988;DHT22;9119;50.932;5.342;2022-10-30T15:33:45;20.30;99.90
17988;DHT22;9119;50.932;5.342;2022-10-30T15:36:22;20.20;99.90
17988;DHT22;9119;50.932;5.342;2022-10-30T15:41:28;20.20;99.90
17988;DHT22;9119;50.932;5.342;2022-10-30T15:43:54;20.20;99.90
17988;DHT22;9119;50.932;5.342;2022-10-30T15:46:23;20.10;99.90
17988;DHT22;9119;50.932;5.342;2022-10-30T15:48:49;20.10;99.90
17988;DHT22;9119;50.932;5.342;2022-10-30T15:51:17;20.10;99.90
17988;DHT22;9119;50.932;5.342;2022-10-30T15:53:57;20.00;99.90
17988;DHT22;9119;50.932;5.342;2022-10-30T15:56:30;19.90;99.90
17988;DHT22;9119;50.932;5.342;2022-10-30T15:58:59;19.80;99.90
17988;DHT22;9119;50.932;5.342;2022-10-30T16:01:36;19.80;99.90
17988;DHT22;9119;50.932;5.342;2022-10-30T16:04:20;19.80;99.90
17988;DHT22;9119;50.932;5.342;2022-10-30T16:06:59;19.70;99.90
17988;DHT22;9119;50.932;5.342;2022-10-30T16:09:27;19.70;99.90
17988;DHT22;9119;50.932;5.342;2022-10-30T16:11:56;19.70;99.90
17988;DHT22;9119;50.932;5.342;2022-10-30T16:14:25;19.60;99.90
17988;DHT22;9119;50.932;5.342;2022-10-30T16:16:51;19.50;99.90
17988;DHT22;9119;50.932;5.342;2022-10-30T16:19:24;19.50;99.90
17988;DHT22;9119;50.932;5.342;2022-10-30T16:21:52;19.40;99.90
17988;DHT22;9119;50.932;5.342;2022-10-30T16:24:22;19.40;99.90
17988;DHT22;9119;50.932;5.342;2022-10-30T16:27:16;19.30;99.90
17988;DHT22;9119;50.932;5.342;2022-10-30T16:29:44;19.30;99.90
17988;DHT22;9119;50.932;5.342;2022-10-30T16:32:13;19.30;99.90
17988;DHT22;9119;50.932;5.342;2022-10-30T16:34:41;19.30;99.90
17988;DHT22;9119;50.932;5.342;2022-10-30T16:37:18;19.30;99.90
17988;DHT22;9119;50.932;5.342;2022-10-30T16:39:47;19.20;99.90
17988;DHT22;9119;50.932;5.342;2022-10-30T16:42:22;19.20;99.90
17988;DHT22;9119;50.932;5.342;2022-10-30T16:44:48;19.20;99.90
17988;DHT22;9119;50.932;5.342;2022-10-30T16:49:51;19.20;99.90
17988;DHT22;9119;50.932;5.342;2022-10-30T16:52:25;19.10;99.90
17988;DHT22;9119;50.932;5.342;2022-10-30T16:54:58;19.10;99.90
17988;DHT22;9119;50.932;5.342;2022-10-30T16:57:27;19.10;99.90
17988;DHT22;9119;50.932;5.342;2022-10-30T16:59:55;19.00;99.90
17988;DHT22;9119;50.932;5.342;2022-10-30T17:02:24;19.00;99.90
17988;DHT22;9119;50.932;5.342;2022-10-30T17:04:54;19.00;99.90
17988;DHT22;9119;50.932;5.342;2022-10-30T17:07:23;18.90;99.90
17988;DHT22;9119;50.932;5.342;2022-10-30T17:09:51;18.80;99.90
17988;DHT22;9119;50.932;5.342;2022-10-30T17:19:48;18.80;99.90
17988;DHT22;9119;50.932;5.342;2022-10-30T17:22:19;18.60;99.90
17988;DHT22;9119;50.932;5.342;2022-10-30T17:24:45;18.70;99.90
17988;DHT22;9119;50.932;5.342;2022-10-30T17:27:28;18.60;99.90
17988;DHT22;9119;50.932;5.342;2022-10-30T17:29:54;18.60;99.90
17988;DHT22;9119;50.932;5.342;2022-10-30T17:32:46;18.60;99.90
17988;DHT22;9119;50.932;5.342;2022-10-30T17:35:17;18.50;99.90
17988;DHT22;9119;50.932;5.342;2022-10-30T17:37:44;18.50;99.90
17988;DHT22;9119;50.932;5.342;2022-10-30T17:40:11;18.50;99.90
17988;DHT22;9119;50.932;5.342;2022-10-30T17:42:37;18.40;99.90
17988;DHT22;9119;50.932;5.342;2022-10-30T17:45:04;18.40;99.90
17988;DHT22;9119;50.932;5.342;2022-10-30T17:47:31;18.30;99.90
17988;DHT22;9119;50.932;5.342;2022-10-30T17:49:57;18.40;99.90
17988;DHT22;9119;50.932;5.342;2022-10-30T17:52:24;18.40;99.90
17988;DHT22;9119;50.932;5.342;2022-10-30T17:54:49;18.50;99.90
17988;DHT22;9119;50.932;5.342;2022-10-30T17:57:15;18.30;99.90
17988;DHT22;9119;50.932;5.342;2022-10-30T17:59:42;18.20;99.90
17988;DHT22;9119;50.932;5.342;2022-10-30T18:02:19;18.20;99.90
17988;DHT22;9119;50.932;5.342;2022-10-30T18:04:45;18.20;99.90
17988;DHT22;9119;50.932;5.342;2022-10-30T18:07:13;18.10;99.90
17988;DHT22;9119;50.932;5.342;2022-10-30T18:09:40;18.10;99.90
17988;DHT22;9119;50.932;5.342;2022-10-30T18:12:09;18.00;99.90
17988;DHT22;9119;50.932;5.342;2022-10-30T18:14:36;18.10;99.90
17988;DHT22;9119;50.932;5.342;2022-10-30T18:17:02;18.00;99.90
17988;DHT22;9119;50.932;5.342;2022-10-30T18:19:27;18.30;99.90
17988;DHT22;9119;50.932;5.342;2022-10-30T18:21:53;18.10;99.90
17988;DHT22;9119;50.932;5.342;2022-10-30T18:24:19;18.00;99.90
17988;DHT22;9119;50.932;5.342;2022-10-30T18:26:45;18.00;99.90
17988;DHT22;9119;50.932;5.342;2022-10-30T18:29:10;18.00;99.90